sensor_id;sensor_type;location;lat;lon;timestamp;pressure;altitude;pressure_sealevel;temperature;humidity
61573;BME280;47465;43.094;12.434;2023-04-15T00:58:32;97921.28;;;5.10;100.00
61573;BME280;47465;43.094;12.434;2023-04-15T01:04:46;97867.03;;;4.99;100.00
61573;BME280;47465;43.094;12.434;2023-04-15T01:07:54;97890.41;;;5.17;100.00
61573;BME280;47465;43.094;12.434;2023-04-15T01:21:35;97923.09;;;5.95;100.00
61573;BME280;47465;43.094;12.434;2023-04-15T01:28:43;97897.13;;;6.16;100.00
61573;BME280;47465;43.094;12.434;2023-04-15T01:31:33;97883.94;;;6.16;100.00
61573;BME280;47465;43.094;12.434;2023-04-15T01:37:33;97925.94;;;6.61;100.00
61573;BME280;47465;43.094;12.434;2023-04-15T01:54:05;97898.00;;;6.52;100.00
61573;BME280;47465;43.094;12.434;2023-04-15T01:57:21;97878.22;;;6.33;100.00
61573;BME280;47465;43.094;12.434;2023-04-15T02:20:51;97904.00;;;6.59;100.00
61573;BME280;47465;43.094;12.434;2023-04-15T02:27:04;97896.78;;;6.66;100.00
61573;BME280;47465;43.094;12.434;2023-04-15T02:41:01;97896.00;;;6.62;100.00
61573;BME280;47465;43.094;12.434;2023-04-15T02:48:09;97834.97;;;6.38;100.00
61573;BME280;47465;43.094;12.434;2023-04-15T03:30:39;97841.28;;;6.66;100.00
61573;BME280;47465;43.094;12.434;2023-04-15T03:33:15;97826.66;;;6.54;100.00
61573;BME280;47465;43.094;12.434;2023-04-15T03:36:06;97807.28;;;6.55;100.00
61573;BME280;47465;43.094;12.434;2023-04-15T03:38:38;97836.19;;;6.60;100.00
61573;BME280;47465;43.094;12.434;2023-04-15T03:41:23;97859.56;;;6.75;100.00
61573;BME280;47465;43.094;12.434;2023-04-15T03:43:51;97816.00;;;6.57;100.00
61573;BME280;47465;43.094;12.434;2023-04-15T03:46:50;97833.22;;;6.72;100.00
61573;BME280;47465;43.094;12.434;2023-04-15T03:49:29;97849.72;;;6.80;100.00
61573;BME280;47465;43.094;12.434;2023-04-15T03:55:28;97796.06;;;6.45;100.00
61573;BME280;47465;43.094;12.434;2023-04-15T04:01:30;97848.19;;;6.73;100.00
61573;BME280;47465;43.094;12.434;2023-04-15T04:04:16;97798.69;;;6.47;100.00
61573;BME280;47465;43.094;12.434;2023-04-15T04:06:45;97814.25;;;6.57;100.00
61573;BME280;47465;43.094;12.434;2023-04-15T04:09:14;97811.63;;;6.56;100.00
61573;BME280;47465;43.094;12.434;2023-04-15T04:12:11;97840.94;;;6.79;100.00
61573;BME280;47465;43.094;12.434;2023-04-15T04:14:48;97844.47;;;6.78;100.00
61573;BME280;47465;43.094;12.434;2023-04-15T04:17:53;97847.13;;;6.78;100.00
61573;BME280;47465;43.094;12.434;2023-04-15T04:24:15;97845.25;;;6.84;100.00
61573;BME280;47465;43.094;12.434;2023-04-15T04:37:45;97798.66;;;6.79;100.00
61573;BME280;47465;43.094;12.434;2023-04-15T04:40:12;97826.34;;;6.97;100.00
61573;BME280;47465;43.094;12.434;2023-04-15T04:50:02;97813.94;;;7.01;100.00
61573;BME280;47465;43.094;12.434;2023-04-15T04:52:40;97819.13;;;7.04;100.00
61573;BME280;47465;43.094;12.434;2023-04-15T04:55:22;97807.59;;;7.07;100.00
61573;BME280;47465;43.094;12.434;2023-04-15T04:58:06;97792.81;;;6.99;100.00
61573;BME280;47465;43.094;12.434;2023-04-15T05:01:19;97830.88;;;7.25;100.00
61573;BME280;47465;43.094;12.434;2023-04-15T05:03:52;97807.13;;;6.92;100.00
61573;BME280;47465;43.094;12.434;2023-04-15T05:06:36;97781.56;;;6.62;100.00
61573;BME280;47465;43.094;12.434;2023-04-15T05:09:20;97811.22;;;6.71;100.00
61573;BME280;47465;43.094;12.434;2023-04-15T05:12:32;97802.63;;;6.63;100.00
61573;BME280;47465;43.094;12.434;2023-04-15T05:15:37;97829.84;;;6.98;100.00
61573;BME280;47465;43.094;12.434;2023-04-15T05:18:25;97784.41;;;6.85;100.00
61573;BME280;47465;43.094;12.434;2023-04-15T05:27:59;97810.22;;;7.38;100.00
61573;BME280;47465;43.094;12.434;2023-04-15T05:30:46;97819.34;;;7.57;100.00
61573;BME280;47465;43.094;12.434;2023-04-15T05:36:41;97792.69;;;7.64;97.81
61573;BME280;47465;43.094;12.434;2023-04-15T05:42:51;97808.00;;;7.82;97.38
61573;BME280;47465;43.094;12.434;2023-04-15T05:46:43;97818.09;;;7.97;97.33
61573;BME280;47465;43.094;12.434;2023-04-15T05:49:16;97782.66;;;7.75;93.61
61573;BME280;47465;43.094;12.434;2023-04-15T05:52:51;97769.53;;;7.98;93.67
61573;BME280;47465;43.094;12.434;2023-04-15T05:55:41;97825.03;;;8.28;92.22
61573;BME280;47465;43.094;12.434;2023-04-15T05:58:24;97809.91;;;8.32;91.72
61573;BME280;47465;43.094;12.434;2023-04-15T06:04:14;97790.56;;;8.56;89.38
61573;BME280;47465;43.094;12.434;2023-04-15T06:14:59;97806.09;;;8.92;87.53
61573;BME280;47465;43.094;12.434;2023-04-15T06:24:20;97763.69;;;8.92;88.36
61573;BME280;47465;43.094;12.434;2023-04-15T06:27:25;97812.25;;;9.18;86.90
61573;BME280;47465;43.094;12.434;2023-04-15T07:00:38;97783.75;;;9.46;85.15
61573;BME280;47465;43.094;12.434;2023-04-15T07:03:14;97762.72;;;9.42;84.35
61573;BME280;47465;43.094;12.434;2023-04-15T07:06:12;97797.38;;;9.83;81.76
61573;BME280;47465;43.094;12.434;2023-04-15T07:08:51;97757.88;;;9.52;82.34
61573;BME280;47465;43.094;12.434;2023-04-15T07:11:31;97761.34;;;9.54;81.43
61573;BME280;47465;43.094;12.434;2023-04-15T07:15:06;97770.25;;;9.53;82.12
61573;BME280;47465;43.094;12.434;2023-04-15T07:18:03;97766.66;;;9.54;82.48
61573;BME280;47465;43.094;12.434;2023-04-15T07:21:09;97799.81;;;9.89;81.74
61573;BME280;47465;43.094;12.434;2023-04-15T07:23:50;97784.09;;;9.83;79.99
61573;BME280;47465;43.094;12.434;2023-04-15T07:26:37;97756.13;;;9.74;80.79
61573;BME280;47465;43.094;12.434;2023-04-15T07:29:36;97760.50;;;10.41;75.96
61573;BME280;47465;43.094;12.434;2023-04-15T07:32:31;97783.59;;;10.39;79.73
61573;BME280;47465;43.094;12.434;2023-04-15T07:35:06;97798.59;;;10.40;78.65
61573;BME280;47465;43.094;12.434;2023-04-15T07:41:30;97762.53;;;10.13;77.20
61573;BME280;47465;43.094;12.434;2023-04-15T07:44:04;97788.34;;;10.74;73.70
61573;BME280;47465;43.094;12.434;2023-04-15T07:46:37;97767.59;;;10.82;70.49
61573;BME280;47465;43.094;12.434;2023-04-15T07:49:12;97766.34;;;11.09;70.26
61573;BME280;47465;43.094;12.434;2023-04-15T07:51:51;97788.16;;;11.18;73.64
61573;BME280;47465;43.094;12.434;2023-04-15T07:54:25;97769.06;;;10.68;74.28
61573;BME280;47465;43.094;12.434;2023-04-15T07:56:55;97771.56;;;10.92;75.02
61573;BME280;47465;43.094;12.434;2023-04-15T07:59:31;97750.81;;;10.80;75.74
61573;BME280;47465;43.094;12.434;2023-04-15T08:02:01;97742.31;;;10.92;73.96
61573;BME280;47465;43.094;12.434;2023-04-15T08:04:28;97761.66;;;10.75;75.58
61573;BME280;47465;43.094;12.434;2023-04-15T08:07:00;97792.19;;;10.66;76.89
61573;BME280;47465;43.094;12.434;2023-04-15T08:09:29;97767.00;;;10.55;77.54
61573;BME280;47465;43.094;12.434;2023-04-15T08:12:16;97800.25;;;10.65;79.32
61573;BME280;47465;43.094;12.434;2023-04-15T08:14:42;97792.78;;;10.73;77.37
61573;BME280;47465;43.094;12.434;2023-04-15T08:17:09;97758.50;;;10.67;77.29
61573;BME280;47465;43.094;12.434;2023-04-15T08:19:39;97780.94;;;10.39;80.55
61573;BME280;47465;43.094;12.434;2023-04-15T08:22:22;97751.97;;;10.11;81.18
61573;BME280;47465;43.094;12.434;2023-04-15T08:25:17;97785.66;;;10.33;84.93
61573;BME280;47465;43.094;12.434;2023-04-15T08:27:45;97756.78;;;10.01;84.29
61573;BME280;47465;43.094;12.434;2023-04-15T08:30:24;97773.38;;;10.51;83.02
61573;BME280;47465;43.094;12.434;2023-04-15T08:32:51;97789.91;;;10.37;82.80
61573;BME280;47465;43.094;12.434;2023-04-15T08:35:19;97806.19;;;10.27;86.56
61573;BME280;47465;43.094;12.434;2023-04-15T08:37:50;97794.50;;;10.33;84.01
61573;BME280;47465;43.094;12.434;2023-04-15T08:40:20;97767.59;;;10.19;85.66
61573;BME280;47465;43.094;12.434;2023-04-15T08:42:57;97796.03;;;10.59;83.76
61573;BME280;47465;43.094;12.434;2023-04-15T08:45:37;97788.81;;;10.63;84.32
61573;BME280;47465;43.094;12.434;2023-04-15T08:49:06;97794.38;;;10.77;83.99
61573;BME280;47465;43.094;12.434;2023-04-15T08:52:09;97805.34;;;10.90;84.99
61573;BME280;47465;43.094;12.434;2023-04-15T08:54:55;97805.53;;;11.06;82.11
61573;BME280;47465;43.094;12.434;2023-04-15T09:00:58;97770.59;;;11.14;79.97
61573;BME280;47465;43.094;12.434;2023-04-15T09:03:43;97761.44;;;11.40;79.82
61573;BME280;47465;43.094;12.434;2023-04-15T09:06:20;97790.00;;;11.74;81.57
61573;BME280;47465;43.094;12.434;2023-04-15T09:09:22;97797.81;;;11.77;78.35
61573;BME280;47465;43.094;12.434;2023-04-15T09:12:10;97749.97;;;11.76;77.72
61573;BME280;47465;43.094;12.434;2023-04-15T09:14:44;97771.28;;;12.31;75.62
61573;BME280;47465;43.094;12.434;2023-04-15T09:17:18;97751.22;;;12.59;75.60
61573;BME280;47465;43.094;12.434;2023-04-15T09:20:07;97772.34;;;13.47;71.60
61573;BME280;47465;43.094;12.434;2023-04-15T09:22:40;97775.69;;;13.18;74.35
61573;BME280;47465;43.094;12.434;2023-04-15T09:25:33;97775.47;;;13.87;70.89
61573;BME280;47465;43.094;12.434;2023-04-15T09:28:32;97739.19;;;13.99;68.26
61573;BME280;47465;43.094;12.434;2023-04-15T09:31:02;97746.84;;;14.35;68.14
61573;BME280;47465;43.094;12.434;2023-04-15T09:36:27;97730.94;;;15.65;63.15
61573;BME280;47465;43.094;12.434;2023-04-15T09:39:08;97758.41;;;15.68;62.19
61573;BME280;47465;43.094;12.434;2023-04-15T09:41:38;97742.66;;;15.35;62.10
61573;BME280;47465;43.094;12.434;2023-04-15T09:44:24;97717.78;;;14.90;64.41
61573;BME280;47465;43.094;12.434;2023-04-15T09:49:09;97738.50;;;14.72;65.86
61573;BME280;47465;43.094;12.434;2023-04-15T09:50:28;97719.56;;;14.61;65.83
61573;BME280;47465;43.094;12.434;2023-04-15T09:52:54;97742.78;;;14.60;68.55
61573;BME280;47465;43.094;12.434;2023-04-15T09:55:50;97721.91;;;14.51;67.35
61573;BME280;47465;43.094;12.434;2023-04-15T09:58:21;97704.47;;;14.74;66.25
61573;BME280;47465;43.094;12.434;2023-04-15T10:01:13;97704.09;;;14.50;65.58
61573;BME280;47465;43.094;12.434;2023-04-15T10:03:40;97710.25;;;14.96;63.95
61573;BME280;47465;43.094;12.434;2023-04-15T10:06:10;97732.31;;;15.00;65.39
61573;BME280;47465;43.094;12.434;2023-04-15T10:08:40;97726.84;;;14.73;65.77
61573;BME280;47465;43.094;12.434;2023-04-15T10:11:20;97689.09;;;14.47;68.23
61573;BME280;47465;43.094;12.434;2023-04-15T10:14:10;97693.31;;;14.51;67.03
61573;BME280;47465;43.094;12.434;2023-04-15T10:16:46;97681.53;;;14.70;65.84
61573;BME280;47465;43.094;12.434;2023-04-15T10:19:18;97714.78;;;15.37;64.87
61573;BME280;47465;43.094;12.434;2023-04-15T10:22:00;97700.16;;;15.57;62.62
61573;BME280;47465;43.094;12.434;2023-04-15T10:24:30;97701.94;;;15.57;62.24
61573;BME280;47465;43.094;12.434;2023-04-15T10:27:17;97659.66;;;15.06;65.68
61573;BME280;47465;43.094;12.434;2023-04-15T10:29:44;97693.97;;;15.28;66.47
61573;BME280;47465;43.094;12.434;2023-04-15T10:32:33;97656.75;;;15.09;65.58
61573;BME280;47465;43.094;12.434;2023-04-15T10:35:23;97673.03;;;14.77;66.39
61573;BME280;47465;43.094;12.434;2023-04-15T10:45:52;97670.25;;;14.04;70.93
61573;BME280;47465;43.094;12.434;2023-04-15T11:30:41;97606.78;;;14.81;68.23
61573;BME280;47465;43.094;12.434;2023-04-15T11:33:15;97629.22;;;15.22;64.86
61573;BME280;47465;43.094;12.434;2023-04-15T11:36:29;97588.00;;;15.51;64.55
61573;BME280;47465;43.094;12.434;2023-04-15T11:39:14;97632.84;;;16.16;62.19
61573;BME280;47465;43.094;12.434;2023-04-15T11:41:44;97634.56;;;15.77;63.21
61573;BME280;47465;43.094;12.434;2023-04-15T11:44:24;97627.31;;;15.92;60.97
61573;BME280;47465;43.094;12.434;2023-04-15T11:46:51;97603.06;;;15.81;61.93
61573;BME280;47465;43.094;12.434;2023-04-15T11:50:00;97609.91;;;15.85;61.57
61573;BME280;47465;43.094;12.434;2023-04-15T11:52:39;97618.41;;;16.05;61.35
61573;BME280;47465;43.094;12.434;2023-04-15T11:55:09;97606.66;;;16.07;61.89
61573;BME280;47465;43.094;12.434;2023-04-15T11:57:45;97589.00;;;15.63;60.72
61573;BME280;47465;43.094;12.434;2023-04-15T12:00:27;97634.22;;;16.09;61.28
61573;BME280;47465;43.094;12.434;2023-04-15T12:03:15;97621.56;;;16.11;59.23
61573;BME280;47465;43.094;12.434;2023-04-15T12:06:07;97620.94;;;16.20;59.85
61573;BME280;47465;43.094;12.434;2023-04-15T12:09:01;97570.81;;;16.08;59.48
61573;BME280;47465;43.094;12.434;2023-04-15T12:11:36;97613.53;;;16.37;60.51
61573;BME280;47465;43.094;12.434;2023-04-15T12:14:36;97597.44;;;15.71;61.09
61573;BME280;47465;43.094;12.434;2023-04-15T12:17:12;97608.53;;;15.92;62.46
61573;BME280;47465;43.094;12.434;2023-04-15T12:19:45;97576.53;;;15.76;61.99
61573;BME280;47465;43.094;12.434;2023-04-15T12:22:16;97595.69;;;16.10;61.32
61573;BME280;47465;43.094;12.434;2023-04-15T12:24:45;97569.09;;;15.94;61.13
61573;BME280;47465;43.094;12.434;2023-04-15T12:27:15;97581.28;;;15.86;61.57
61573;BME280;47465;43.094;12.434;2023-04-15T12:30:14;97555.91;;;15.64;61.97
61573;BME280;47465;43.094;12.434;2023-04-15T12:33:19;97558.78;;;15.88;62.47
61573;BME280;47465;43.094;12.434;2023-04-15T12:36:03;97582.53;;;16.20;60.58
61573;BME280;47465;43.094;12.434;2023-04-15T12:38:48;97587.91;;;16.20;61.44
61573;BME280;47465;43.094;12.434;2023-04-15T12:41:29;97579.88;;;15.66;62.21
61573;BME280;47465;43.094;12.434;2023-04-15T12:43:55;97581.09;;;16.01;62.88
61573;BME280;47465;43.094;12.434;2023-04-15T12:46:45;97598.09;;;16.28;60.91
61573;BME280;47465;43.094;12.434;2023-04-15T12:49:38;97577.94;;;15.82;60.52
61573;BME280;47465;43.094;12.434;2023-04-15T12:52:28;97569.41;;;16.15;61.57
61573;BME280;47465;43.094;12.434;2023-04-15T12:55:06;97573.63;;;16.45;61.68
61573;BME280;47465;43.094;12.434;2023-04-15T12:57:39;97533.03;;;15.86;60.61
61573;BME280;47465;43.094;12.434;2023-04-15T13:00:09;97563.97;;;16.17;61.04
61573;BME280;47465;43.094;12.434;2023-04-15T13:02:39;97543.25;;;16.45;59.66
61573;BME280;47465;43.094;12.434;2023-04-15T13:08:44;97518.88;;;16.22;59.75
61573;BME280;47465;43.094;12.434;2023-04-15T13:11:24;97514.06;;;16.40;59.75
61573;BME280;47465;43.094;12.434;2023-04-15T13:14:16;97528.63;;;16.74;59.88
61573;BME280;47465;43.094;12.434;2023-04-15T13:16:46;97512.88;;;16.57;58.37
61573;BME280;47465;43.094;12.434;2023-04-15T13:19:22;97504.69;;;16.58;56.89
61573;BME280;47465;43.094;12.434;2023-04-15T13:22:21;97531.34;;;16.61;59.55
61573;BME280;47465;43.094;12.434;2023-04-15T13:24:53;97541.53;;;16.56;59.00
61573;BME280;47465;43.094;12.434;2023-04-15T13:27:25;97545.19;;;16.81;59.68
61573;BME280;47465;43.094;12.434;2023-04-15T13:29:59;97513.47;;;16.86;58.43
61573;BME280;47465;43.094;12.434;2023-04-15T13:32:43;97531.19;;;16.63;57.07
61573;BME280;47465;43.094;12.434;2023-04-15T13:38:46;97486.91;;;16.57;58.93
61573;BME280;47465;43.094;12.434;2023-04-15T13:44:13;97491.81;;;17.37;55.12
61573;BME280;47465;43.094;12.434;2023-04-15T13:46:54;97509.22;;;17.32;56.57
61573;BME280;47465;43.094;12.434;2023-04-15T13:49:22;97506.09;;;17.14;56.67
61573;BME280;47465;43.094;12.434;2023-04-15T13:52:30;97479.03;;;16.54;58.13
61573;BME280;47465;43.094;12.434;2023-04-15T13:55:26;97512.41;;;17.37;56.09
61573;BME280;47465;43.094;12.434;2023-04-15T13:58:21;97507.78;;;17.63;55.18
61573;BME280;47465;43.094;12.434;2023-04-15T14:14:04;97509.97;;;15.96;55.93
61573;BME280;47465;43.094;12.434;2023-04-15T14:29:50;97498.94;;;15.75;57.16
61573;BME280;47465;43.094;12.434;2023-04-15T14:32:55;97479.22;;;16.14;55.11
61573;BME280;47465;43.094;12.434;2023-04-15T14:35:22;97465.03;;;15.74;55.13
61573;BME280;47465;43.094;12.434;2023-04-15T14:38:08;97459.59;;;15.08;57.07
61573;BME280;47465;43.094;12.434;2023-04-15T14:41:02;97453.00;;;14.87;57.52
61573;BME280;47465;43.094;12.434;2023-04-15T14:44:02;97448.47;;;14.87;58.43
61573;BME280;47465;43.094;12.434;2023-04-15T14:46:40;97496.34;;;15.33;58.75
61573;BME280;47465;43.094;12.434;2023-04-15T14:49:45;97492.16;;;15.29;58.63
61573;BME280;47465;43.094;12.434;2023-04-15T14:56:36;97503.66;;;15.17;56.72
61573;BME280;47465;43.094;12.434;2023-04-15T15:00:29;97487.53;;;14.77;58.85
61573;BME280;47465;43.094;12.434;2023-04-15T15:02:11;97495.56;;;14.77;60.78
61573;BME280;47465;43.094;12.434;2023-04-15T15:04:38;97484.19;;;14.73;60.25
61573;BME280;47465;43.094;12.434;2023-04-15T15:07:10;97476.81;;;14.48;60.11
61573;BME280;47465;43.094;12.434;2023-04-15T15:10:26;97452.50;;;14.24;61.47
61573;BME280;47465;43.094;12.434;2023-04-15T15:13:46;97496.72;;;14.15;62.68
61573;BME280;47465;43.094;12.434;2023-04-15T15:16:19;97461.66;;;13.91;64.42
61573;BME280;47465;43.094;12.434;2023-04-15T15:19:03;97503.59;;;14.20;64.87
61573;BME280;47465;43.094;12.434;2023-04-15T15:21:53;97453.72;;;13.90;65.45
61573;BME280;47465;43.094;12.434;2023-04-15T15:24:55;97460.44;;;13.97;65.09
61573;BME280;47465;43.094;12.434;2023-04-15T15:27:50;97473.13;;;14.08;65.83
61573;BME280;47465;43.094;12.434;2023-04-15T15:30:39;97507.03;;;14.22;66.05
61573;BME280;47465;43.094;12.434;2023-04-15T15:36:21;97477.41;;;13.82;67.48
61573;BME280;47465;43.094;12.434;2023-04-15T15:39:20;97452.59;;;13.80;68.20
61573;BME280;47465;43.094;12.434;2023-04-15T15:43:06;97463.84;;;13.85;68.50
61573;BME280;47465;43.094;12.434;2023-04-15T15:45:37;97487.91;;;13.85;68.08
61573;BME280;47465;43.094;12.434;2023-04-15T15:55:08;97503.94;;;13.85;69.01
61573;BME280;47465;43.094;12.434;2023-04-15T16:35:38;97526.09;;;12.29;87.17
61573;BME280;47465;43.094;12.434;2023-04-15T16:38:20;97526.03;;;12.31;88.74
61573;BME280;47465;43.094;12.434;2023-04-15T16:42:19;97523.69;;;12.25;90.29
61573;BME280;47465;43.094;12.434;2023-04-15T16:44:10;97524.13;;;12.17;91.01
61573;BME280;47465;43.094;12.434;2023-04-15T17:13:03;97528.41;;;11.15;93.10
61573;BME280;47465;43.094;12.434;2023-04-15T17:34:16;97554.63;;;10.48;100.00
61573;BME280;47465;43.094;12.434;2023-04-15T17:37:09;97539.53;;;10.30;100.00
61573;BME280;47465;43.094;12.434;2023-04-15T17:39:38;97514.50;;;10.15;100.00
61573;BME280;47465;43.094;12.434;2023-04-15T17:45:27;97550.53;;;10.21;100.00
61573;BME280;47465;43.094;12.434;2023-04-15T17:48:15;97515.31;;;9.97;100.00
61573;BME280;47465;43.094;12.434;2023-04-15T17:54:00;97557.66;;;10.20;100.00
61573;BME280;47465;43.094;12.434;2023-04-15T17:56:31;97556.72;;;10.21;100.00
61573;BME280;47465;43.094;12.434;2023-04-15T17:59:32;97552.19;;;10.23;100.00
61573;BME280;47465;43.094;12.434;2023-04-15T18:01:59;97555.16;;;10.17;100.00
61573;BME280;47465;43.094;12.434;2023-04-15T18:04:43;97546.66;;;10.09;100.00
61573;BME280;47465;43.094;12.434;2023-04-15T18:07:09;97545.44;;;10.16;100.00
61573;BME280;47465;43.094;12.434;2023-04-15T18:12:46;97546.09;;;10.21;100.00
61573;BME280;47465;43.094;12.434;2023-04-15T18:15:34;97556.53;;;10.26;100.00
61573;BME280;47465;43.094;12.434;2023-04-15T18:18:04;97595.88;;;10.57;97.09
61573;BME280;47465;43.094;12.434;2023-04-15T18:20:32;97588.84;;;10.56;97.22
61573;BME280;47465;43.094;12.434;2023-04-15T18:22:59;97559.72;;;10.14;98.50
61573;BME280;47465;43.094;12.434;2023-04-15T18:26:05;97604.72;;;10.17;100.00
61573;BME280;47465;43.094;12.434;2023-04-15T18:28:36;97576.84;;;9.86;100.00
61573;BME280;47465;43.094;12.434;2023-04-15T18:34:27;97594.75;;;9.82;99.92
61573;BME280;47465;43.094;12.434;2023-04-15T18:51:51;97612.84;;;9.73;100.00
61573;BME280;47465;43.094;12.434;2023-04-15T18:55:00;97612.84;;;9.73;100.00
61573;BME280;47465;43.094;12.434;2023-04-15T19:01:52;97580.84;;;9.55;98.89
61573;BME280;47465;43.094;12.434;2023-04-15T19:11:00;97609.66;;;9.85;99.13
61573;BME280;47465;43.094;12.434;2023-04-15T19:23:50;97602.50;;;9.87;96.90
61573;BME280;47465;43.094;12.434;2023-04-15T19:30:04;97618.69;;;9.81;97.07
61573;BME280;47465;43.094;12.434;2023-04-15T21:15:38;97588.94;;;8.86;100.00
61573;BME280;47465;43.094;12.434;2023-04-15T21:18:18;97605.50;;;8.91;100.00
61573;BME280;47465;43.094;12.434;2023-04-15T21:24:35;97600.38;;;8.87;100.00
61573;BME280;47465;43.094;12.434;2023-04-15T21:27:38;97584.84;;;8.77;100.00
